Time;durP1;ratioP1;P1;durP2;ratioP2;P2;SDS_P1;SDS_P2;PMS_P1;PMS_P2;Temp;Humidity;BMP_temperature;BMP_pressure;BME280_temperature;BME280_humidity;BME280_pressure;Samples;Min_cycle;Max_cycle;Signal;HPM_P1;HPM_P2
2023/03/26 00:01:52;;;;;;;;;;;8.00;99.90;;;;;;4947536;28;19930;-84
2023/03/26 00:04:20;;;;;;;;;;;8.00;99.90;;;;;;4953849;28;19930;-85
2023/03/26 00:06:47;;;;;;;;;;;8.00;99.90;;;;;;4944378;28;20409;-83
2023/03/26 00:09:15;;;;;;;;;;;8.00;99.90;;;;;;4947024;28;19927;-84
2023/03/26 00:11:45;;;;;;;;;;;8.00;99.90;;;;;;4937857;28;19933;-83
2023/03/26 00:14:12;;;;;;;;;;;7.90;99.90;;;;;;4941126;28;20013;-85
2023/03/26 00:16:40;;;;;;;;;;;7.90;99.90;;;;;;4948975;28;19926;-84
2023/03/26 00:19:07;;;;;;;;;;;7.90;99.90;;;;;;4947564;28;19950;-84
2023/03/26 00:21:34;;;;;;;;;;;7.90;99.90;;;;;;4946056;28;20003;-84
2023/03/26 00:24:03;;;;;;;;;;;7.90;99.90;;;;;;4947633;28;19926;-85
2023/03/26 00:26:31;;;;;;;;;;;7.80;99.90;;;;;;4949236;28;19931;-85
2023/03/26 00:29:00;;;;;;;;;;;7.90;99.90;;;;;;4951483;28;19926;-84
2023/03/26 00:31:27;;;;;;;;;;;7.80;99.90;;;;;;4945355;28;19953;-84
2023/03/26 00:33:54;;;;;;;;;;;7.80;99.90;;;;;;4949195;28;19926;-85
2023/03/26 00:36:22;;;;;;;;;;;7.80;99.90;;;;;;4951293;28;19927;-84
2023/03/26 00:38:51;;;;;;;;;;;7.80;99.90;;;;;;4957875;28;19937;-83
2023/03/26 00:41:24;;;;;;;;;;;7.80;99.90;;;;;;4953543;28;19938;-84
2023/03/26 00:43:54;;;;;;;;;;;7.80;99.90;;;;;;4955508;28;20026;-83
2023/03/26 00:46:23;;;;;;;;;;;7.80;99.90;;;;;;4947912;28;20304;-84
2023/03/26 00:48:50;;;;;;;;;;;7.80;99.90;;;;;;4943964;28;20281;-83
2023/03/26 00:51:19;;;;;;;;;;;7.70;99.90;;;;;;4965186;28;19927;-83
2023/03/26 00:53:46;;;;;;;;;;;7.70;99.90;;;;;;4965068;28;20389;-84
2023/03/26 00:56:13;;;;;;;;;;;7.70;99.90;;;;;;4945369;28;20014;-84
2023/03/26 00:58:41;;;;;;;;;;;7.70;99.90;;;;;;4955770;28;19958;-84
2023/03/26 01:01:09;;;;;;;;;;;7.70;99.90;;;;;;4960516;28;19954;-85
2023/03/26 01:03:38;;;;;;;;;;;7.70;99.90;;;;;;4947053;28;19934;-85
2023/03/26 01:06:06;;;;;;;;;;;7.70;99.90;;;;;;4954982;28;19926;-85
2023/03/26 01:08:35;;;;;;;;;;;7.70;99.90;;;;;;4959730;28;20648;-83
2023/03/26 01:11:06;;;;;;;;;;;7.70;99.90;;;;;;4953126;28;20080;-83
2023/03/26 01:13:35;;;;;;;;;;;7.70;99.90;;;;;;4946394;28;19957;-84
2023/03/26 01:16:05;;;;;;;;;;;7.70;99.90;;;;;;4948935;28;19927;-84
2023/03/26 01:18:39;;;;;;;;;;;7.70;99.90;;;;;;4947606;28;20652;-84
2023/03/26 01:21:08;;;;;;;;;;;7.60;99.90;;;;;;4950452;28;20226;-83
2023/03/26 01:23:39;;;;;;;;;;;7.60;99.90;;;;;;4949224;28;19927;-85
2023/03/26 01:26:10;;;;;;;;;;;7.60;99.90;;;;;;4984783;28;19933;-83
2023/03/26 01:28:40;;;;;;;;;;;7.60;99.90;;;;;;4966059;28;19926;-83
2023/03/26 01:31:10;;;;;;;;;;;7.60;99.90;;;;;;4951393;28;20714;-83
2023/03/26 01:33:39;;;;;;;;;;;7.60;99.90;;;;;;4953842;28;19938;-84
2023/03/26 01:36:07;;;;;;;;;;;7.60;99.90;;;;;;4964319;28;19938;-83
2023/03/26 01:38:39;;;;;;;;;;;7.60;99.90;;;;;;4953924;28;19934;-84
2023/03/26 01:41:10;;;;;;;;;;;7.60;99.90;;;;;;4953481;28;19932;-84
2023/03/26 01:43:39;;;;;;;;;;;7.60;99.90;;;;;;4954883;28;19930;-83
2023/03/26 01:46:07;;;;;;;;;;;7.60;99.90;;;;;;4956045;28;20046;-84
2023/03/26 01:48:36;;;;;;;;;;;7.50;99.90;;;;;;4950184;28;20046;-84
2023/03/26 01:51:03;;;;;;;;;;;7.60;99.90;;;;;;4959648;28;20164;-84
2023/03/26 01:53:30;;;;;;;;;;;7.50;99.90;;;;;;4951020;28;19969;-84
2023/03/26 01:56:04;;;;;;;;;;;7.50;99.90;;;;;;4956123;28;19936;-83
2023/03/26 01:58:36;;;;;;;;;;;7.50;99.90;;;;;;4970082;28;19938;-84
2023/03/26 02:01:07;;;;;;;;;;;7.50;99.90;;;;;;4957715;28;19969;-84
2023/03/26 02:03:38;;;;;;;;;;;7.50;99.90;;;;;;4966620;28;22378;-83
2023/03/26 02:06:08;;;;;;;;;;;7.50;99.90;;;;;;4952450;28;19961;-84
2023/03/26 02:08:38;;;;;;;;;;;7.50;99.90;;;;;;4955262;28;19930;-85
2023/03/26 02:11:09;;;;;;;;;;;7.50;99.90;;;;;;4956145;28;19934;-85
2023/03/26 02:13:38;;;;;;;;;;;7.50;99.90;;;;;;4963064;28;19923;-83
2023/03/26 02:16:06;;;;;;;;;;;7.50;99.90;;;;;;4948390;28;19926;-83
2023/03/26 02:18:37;;;;;;;;;;;7.50;99.90;;;;;;4966759;28;20791;-84
2023/03/26 02:21:08;;;;;;;;;;;7.50;99.90;;;;;;4957526;28;19954;-84
2023/03/26 02:23:39;;;;;;;;;;;7.50;99.90;;;;;;4974541;28;20451;-84
2023/03/26 02:26:06;;;;;;;;;;;7.50;99.90;;;;;;4956563;28;19954;-83
2023/03/26 02:28:35;;;;;;;;;;;7.50;99.90;;;;;;4966899;28;19973;-83
2023/03/26 02:31:04;;;;;;;;;;;7.50;99.90;;;;;;4966521;28;19934;-84
2023/03/26 02:33:31;;;;;;;;;;;7.40;99.90;;;;;;4960119;28;19930;-83
2023/03/26 02:36:00;;;;;;;;;;;7.50;99.90;;;;;;4959852;28;20007;-83
2023/03/26 02:38:27;;;;;;;;;;;7.40;99.90;;;;;;4960496;28;19930;-84
2023/03/26 02:40:54;;;;;;;;;;;7.40;99.90;;;;;;4965035;28;19967;-85
2023/03/26 02:43:25;;;;;;;;;;;7.40;99.90;;;;;;4962133;28;19926;-83
2023/03/26 02:45:53;;;;;;;;;;;7.40;99.90;;;;;;4981119;28;19926;-84
2023/03/26 02:48:48;;;;;;;;;;;7.40;99.90;;;;;;4965014;28;20037;-84
2023/03/26 02:51:21;;;;;;;;;;;7.40;99.90;;;;;;4981887;28;19915;-83
2023/03/26 02:54:03;;;;;;;;;;;7.40;99.90;;;;;;4970153;28;20017;-84
2023/03/26 02:56:49;;;;;;;;;;;7.40;99.90;;;;;;4962975;28;19953;-82
2023/03/26 02:59:39;;;;;;;;;;;7.30;99.90;;;;;;4962124;28;19953;-83
2023/03/26 03:02:38;;;;;;;;;;;7.40;99.90;;;;;;5029196;23;19937;-71
2023/03/26 03:05:33;;;;;;;;;;;7.30;99.90;;;;;;4938177;28;20419;-72
2023/03/26 03:08:18;;;;;;;;;;;7.30;99.90;;;;;;4950510;28;20017;-72
2023/03/26 03:11:12;;;;;;;;;;;7.30;99.90;;;;;;4919096;28;19952;-72
2023/03/26 03:13:43;;;;;;;;;;;7.30;99.90;;;;;;4933736;28;19978;-72
2023/03/26 03:16:10;;;;;;;;;;;7.30;99.90;;;;;;4937230;28;19934;-71
2023/03/26 03:18:37;;;;;;;;;;;7.30;99.90;;;;;;4952127;28;19927;-72
2023/03/26 03:21:06;;;;;;;;;;;7.30;99.90;;;;;;4958666;28;19931;-72
2023/03/26 03:23:33;;;;;;;;;;;7.30;99.90;;;;;;4954249;28;19973;-72
2023/03/26 03:26:12;;;;;;;;;;;7.20;99.90;;;;;;4940803;28;19958;-72
2023/03/26 03:28:39;;;;;;;;;;;7.20;99.90;;;;;;4940215;28;19927;-72
2023/03/26 03:31:07;;;;;;;;;;;7.20;99.90;;;;;;4965575;28;19958;-72
2023/03/26 03:33:36;;;;;;;;;;;;;;;;;;4931470;28;19945;-71
2023/03/26 03:36:09;;;;;;;;;;;7.20;99.90;;;;;;4941459;28;19933;-72
2023/03/26 03:38:38;;;;;;;;;;;7.20;99.90;;;;;;4942911;28;20431;-72
2023/03/26 03:41:05;;;;;;;;;;;7.20;99.90;;;;;;4944878;28;19930;-72
2023/03/26 03:43:34;;;;;;;;;;;7.20;99.90;;;;;;4975285;28;19933;-72
2023/03/26 03:46:12;;;;;;;;;;;7.20;99.90;;;;;;4943907;28;20328;-72
2023/03/26 03:48:48;;;;;;;;;;;7.20;99.90;;;;;;4938463;28;19941;-72
2023/03/26 03:51:17;;;;;;;;;;;7.20;99.90;;;;;;4945346;28;19941;-72
2023/03/26 03:53:51;;;;;;;;;;;7.20;99.90;;;;;;4945583;28;20018;-72
2023/03/26 03:56:28;;;;;;;;;;;7.20;99.90;;;;;;4944190;28;19985;-71
2023/03/26 03:59:16;;;;;;;;;;;7.10;99.90;;;;;;4945210;28;19934;-72
2023/03/26 04:01:45;;;;;;;;;;;7.10;99.90;;;;;;4942351;28;19935;-72
2023/03/26 04:04:24;;;;;;;;;;;7.10;99.90;;;;;;4948499;28;19927;-72
2023/03/26 04:06:57;;;;;;;;;;;7.10;99.90;;;;;;4938945;28;19927;-71
2023/03/26 04:09:28;;;;;;;;;;;7.10;99.90;;;;;;4966519;28;19934;-71
2023/03/26 04:11:59;;;;;;;;;;;7.10;99.90;;;;;;4941637;28;19926;-72
2023/03/26 04:14:46;;;;;;;;;;;7.10;99.90;;;;;;4938126;28;19930;-71
2023/03/26 04:17:15;;;;;;;;;;;7.10;99.90;;;;;;4936204;28;20453;-71
2023/03/26 04:19:44;;;;;;;;;;;7.10;99.90;;;;;;4937330;28;19934;-71
2023/03/26 04:22:13;;;;;;;;;;;7.10;99.90;;;;;;4969791;28;19927;-72
2023/03/26 04:24:53;;;;;;;;;;;7.10;99.90;;;;;;4972251;28;20013;-71
2023/03/26 04:27:30;;;;;;;;;;;7.10;99.90;;;;;;4955075;28;19961;-72
2023/03/26 04:30:08;;;;;;;;;;;7.10;99.90;;;;;;4937452;28;19933;-72
2023/03/26 04:32:37;;;;;;;;;;;7.10;99.90;;;;;;4974906;28;19934;-72
2023/03/26 04:35:05;;;;;;;;;;;7.00;99.90;;;;;;4938128;28;19926;-72
2023/03/26 04:37:33;;;;;;;;;;;7.10;99.90;;;;;;4956326;28;19933;-72
2023/03/26 04:40:13;;;;;;;;;;;7.00;99.90;;;;;;4942076;28;20507;-72
2023/03/26 04:42:53;;;;;;;;;;;7.10;99.90;;;;;;4947323;28;19934;-72
2023/03/26 04:45:40;;;;;;;;;;;7.10;99.90;;;;;;4967625;28;20807;-72
2023/03/26 04:48:13;;;;;;;;;;;7.00;99.90;;;;;;4971070;28;19930;-72
2023/03/26 04:50:40;;;;;;;;;;;7.00;99.90;;;;;;4973277;28;19926;-72
2023/03/26 04:53:07;;;;;;;;;;;7.00;99.90;;;;;;4969421;28;20009;-72
2023/03/26 04:56:00;;;;;;;;;;;7.00;99.90;;;;;;4922773;28;20411;-72
2023/03/26 04:58:49;;;;;;;;;;;7.00;99.90;;;;;;4925859;28;19956;-71
2023/03/26 05:01:16;;;;;;;;;;;7.00;99.90;;;;;;4943674;28;19931;-72
2023/03/26 05:03:45;;;;;;;;;;;7.00;99.90;;;;;;4937898;28;20052;-72
2023/03/26 05:06:14;;;;;;;;;;;7.00;99.90;;;;;;4971303;28;19933;-71
2023/03/26 05:08:41;;;;;;;;;;;7.00;99.90;;;;;;4971001;28;20500;-72
2023/03/26 05:11:12;;;;;;;;;;;7.00;99.90;;;;;;4951779;28;20313;-72
2023/03/26 05:13:41;;;;;;;;;;;7.00;99.90;;;;;;4968310;28;19927;-72
2023/03/26 05:16:10;;;;;;;;;;;7.00;99.90;;;;;;4961039;28;19953;-71
2023/03/26 05:18:40;;;;;;;;;;;7.00;99.90;;;;;;4958387;28;19934;-72
2023/03/26 05:21:09;;;;;;;;;;;7.00;99.90;;;;;;4937527;28;19981;-72
2023/03/26 05:23:38;;;;;;;;;;;7.00;99.90;;;;;;4969992;28;19926;-72
2023/03/26 05:26:14;;;;;;;;;;;7.00;99.90;;;;;;4941229;28;19978;-72
2023/03/26 05:28:41;;;;;;;;;;;7.00;99.90;;;;;;4943077;28;20561;-72
2023/03/26 05:31:25;;;;;;;;;;;7.00;99.90;;;;;;4940179;28;20318;-72
2023/03/26 05:33:55;;;;;;;;;;;7.00;99.90;;;;;;4968899;28;19984;-72
2023/03/26 05:36:23;;;;;;;;;;;7.00;99.90;;;;;;4973053;28;19957;-71
2023/03/26 05:39:01;;;;;;;;;;;7.00;99.90;;;;;;4927992;28;19926;-71
2023/03/26 05:41:47;;;;;;;;;;;6.90;99.90;;;;;;4936175;28;19942;-74
2023/03/26 05:44:14;;;;;;;;;;;7.00;99.90;;;;;;4948613;28;19938;-75
2023/03/26 05:46:43;;;;;;;;;;;6.90;99.90;;;;;;4968711;28;19926;-73
2023/03/26 05:49:16;;;;;;;;;;;6.90;99.90;;;;;;4965309;28;19930;-73
2023/03/26 05:51:43;;;;;;;;;;;6.90;99.90;;;;;;4977188;28;20406;-75
2023/03/26 05:54:39;;;;;;;;;;;6.90;99.90;;;;;;4932300;28;19956;-74
2023/03/26 05:57:28;;;;;;;;;;;6.90;99.90;;;;;;4944820;28;20044;-74
2023/03/26 06:00:14;;;;;;;;;;;6.90;99.90;;;;;;4939489;28;19942;-74
2023/03/26 06:02:45;;;;;;;;;;;6.90;99.90;;;;;;4944579;28;20309;-74
2023/03/26 06:05:36;;;;;;;;;;;6.90;99.90;;;;;;4944090;28;20565;-74
2023/03/26 06:08:30;;;;;;;;;;;6.90;99.90;;;;;;4941541;28;19927;-74
2023/03/26 06:11:00;;;;;;;;;;;6.90;99.90;;;;;;4945216;28;19934;-75
2023/03/26 06:13:33;;;;;;;;;;;6.90;99.90;;;;;;4943465;28;19930;-73
2023/03/26 06:16:00;;;;;;;;;;;6.90;99.90;;;;;;4976687;28;20349;-74
2023/03/26 06:18:31;;;;;;;;;;;6.90;99.90;;;;;;4942117;28;19956;-75
2023/03/26 06:21:17;;;;;;;;;;;6.90;99.90;;;;;;4944225;28;20029;-75
2023/03/26 06:23:50;;;;;;;;;;;6.90;99.90;;;;;;4942519;28;19927;-74
2023/03/26 06:26:36;;;;;;;;;;;6.90;99.90;;;;;;4945909;28;20024;-75
2023/03/26 06:29:18;;;;;;;;;;;6.90;99.90;;;;;;4948144;28;19931;-74
2023/03/26 06:32:00;;;;;;;;;;;6.90;99.90;;;;;;4950838;28;19926;-75
2023/03/26 06:34:34;;;;;;;;;;;6.90;99.90;;;;;;4981563;28;19930;-74
2023/03/26 06:37:01;;;;;;;;;;;6.90;99.90;;;;;;4947454;28;19926;-75
2023/03/26 06:39:29;;;;;;;;;;;6.90;99.90;;;;;;4981446;28;19933;-74
2023/03/26 06:42:08;;;;;;;;;;;6.90;99.90;;;;;;4975323;28;19930;-74
2023/03/26 06:44:59;;;;;;;;;;;6.90;99.90;;;;;;4938886;28;19930;-74
2023/03/26 06:47:45;;;;;;;;;;;6.90;99.90;;;;;;4943746;28;19934;-75
2023/03/26 06:50:12;;;;;;;;;;;6.90;99.90;;;;;;4946950;28;19927;-75
2023/03/26 06:53:01;;;;;;;;;;;6.90;99.90;;;;;;4945305;28;20444;-75
2023/03/26 06:55:46;;;;;;;;;;;6.90;99.90;;;;;;4947631;28;20010;-73
2023/03/26 06:58:32;;;;;;;;;;;6.90;99.90;;;;;;4946194;28;20423;-74
2023/03/26 07:01:18;;;;;;;;;;;6.90;99.90;;;;;;4947346;28;20344;-73
2023/03/26 07:04:04;;;;;;;;;;;6.90;99.90;;;;;;4949477;28;20297;-75
2023/03/26 07:06:49;;;;;;;;;;;6.90;99.90;;;;;;4951310;28;20404;-75
2023/03/26 07:09:51;;;;;;;;;;;6.90;99.90;;;;;;4967674;28;20400;-75
2023/03/26 07:12:36;;;;;;;;;;;6.90;99.90;;;;;;4952306;28;20333;-74
2023/03/26 07:15:42;;;;;;;;;;;6.90;99.90;;;;;;4942914;29;20305;-75
2023/03/26 07:18:22;;;;;;;;;;;6.90;99.90;;;;;;4944948;28;19966;-74
2023/03/26 07:20:50;;;;;;;;;;;6.90;99.90;;;;;;4980724;28;19945;-74
2023/03/26 07:23:20;;;;;;;;;;;6.90;99.90;;;;;;4949635;28;19933;-74
2023/03/26 07:25:57;;;;;;;;;;;6.90;99.90;;;;;;4946087;28;19993;-76
2023/03/26 07:28:47;;;;;;;;;;;6.90;99.90;;;;;;4984370;28;19946;-74
2023/03/26 07:31:40;;;;;;;;;;;6.90;99.90;;;;;;4966436;28;19953;-74
2023/03/26 07:34:34;;;;;;;;;;;6.80;99.90;;;;;;4956703;28;19934;-75
2023/03/26 07:37:18;;;;;;;;;;;6.80;99.90;;;;;;4982722;28;19930;-75
2023/03/26 07:40:12;;;;;;;;;;;6.90;99.90;;;;;;4944706;28;19934;-74
2023/03/26 07:43:23;;;;;;;;;;;6.80;99.90;;;;;;4941515;28;20317;-75
2023/03/26 07:45:54;;;;;;;;;;;6.90;99.90;;;;;;4941387;28;19926;-74
2023/03/26 07:48:36;;;;;;;;;;;6.90;99.90;;;;;;4982912;28;19938;-74
2023/03/26 07:51:18;;;;;;;;;;;6.90;99.90;;;;;;4949623;28;19927;-76
2023/03/26 07:54:20;;;;;;;;;;;6.90;99.90;;;;;;4921446;29;19934;-74
2023/03/26 07:57:08;;;;;;;;;;;6.90;99.90;;;;;;4944025;28;19934;-74
2023/03/26 07:59:45;;;;;;;;;;;6.90;99.90;;;;;;4982510;28;20551;-74
2023/03/26 08:02:46;;;;;;;;;;;6.90;99.90;;;;;;4941681;28;20317;-74
2023/03/26 08:05:45;;;;;;;;;;;6.90;99.90;;;;;;4939219;28;19934;-74
2023/03/26 08:08:42;;;;;;;;;;;6.90;99.90;;;;;;4949061;28;20425;-73
2023/03/26 08:11:40;;;;;;;;;;;6.90;99.90;;;;;;4932291;28;19930;-74
2023/03/26 08:14:16;;;;;;;;;;;6.90;99.90;;;;;;4942284;28;19935;-74
2023/03/26 08:16:47;;;;;;;;;;;6.90;99.90;;;;;;4944639;28;20016;-74
2023/03/26 08:19:23;;;;;;;;;;;6.90;99.90;;;;;;4953454;28;19933;-73
2023/03/26 08:21:53;;;;;;;;;;;6.90;99.90;;;;;;4943205;28;19926;-74
2023/03/26 08:24:27;;;;;;;;;;;6.90;99.90;;;;;;4947937;28;20397;-75
2023/03/26 08:26:58;;;;;;;;;;;6.90;99.90;;;;;;4950413;28;20436;-74
2023/03/26 08:29:29;;;;;;;;;;;6.90;99.90;;;;;;4949871;28;20038;-74
2023/03/26 08:31:57;;;;;;;;;;;6.90;99.90;;;;;;4951348;28;19938;-75
2023/03/26 08:34:24;;;;;;;;;;;6.90;99.90;;;;;;4956195;28;19941;-75
2023/03/26 08:36:51;;;;;;;;;;;6.90;99.90;;;;;;4951945;28;19933;-76
2023/03/26 08:39:21;;;;;;;;;;;6.90;99.90;;;;;;4950094;28;19934;-75
2023/03/26 08:42:11;;;;;;;;;;;6.90;99.90;;;;;;4948299;28;19927;-75
2023/03/26 08:44:57;;;;;;;;;;;6.90;99.90;;;;;;4985213;28;20400;-75
2023/03/26 08:47:44;;;;;;;;;;;6.90;99.90;;;;;;4948345;28;19933;-75
2023/03/26 08:50:30;;;;;;;;;;;6.90;99.90;;;;;;4948579;28;19932;-75
2023/03/26 08:53:00;;;;;;;;;;;6.90;99.90;;;;;;4954106;28;20126;-75
2023/03/26 08:55:37;;;;;;;;;;;6.90;99.90;;;;;;4943956;28;19937;-75
2023/03/26 08:58:22;;;;;;;;;;;6.90;99.90;;;;;;4940355;28;19956;-75
2023/03/26 09:00:57;;;;;;;;;;;6.90;99.90;;;;;;4940713;28;19970;-75
2023/03/26 09:03:53;;;;;;;;;;;6.90;99.90;;;;;;4945985;28;19989;-73
2023/03/26 09:06:43;;;;;;;;;;;6.90;99.90;;;;;;4983114;28;20013;-75
2023/03/26 09:09:24;;;;;;;;;;;6.90;99.90;;;;;;4920957;28;20021;-74
2023/03/26 09:12:10;;;;;;;;;;;6.90;99.90;;;;;;4933573;28;19934;-75
2023/03/26 09:14:50;;;;;;;;;;;6.90;99.90;;;;;;4961606;28;19927;-75
2023/03/26 09:17:32;;;;;;;;;;;6.90;99.90;;;;;;4932056;28;20014;-75
2023/03/26 09:20:19;;;;;;;;;;;7.00;99.90;;;;;;4946304;23;20494;-76
2023/03/26 09:23:10;;;;;;;;;;;7.00;99.90;;;;;;4936279;28;19934;-75
2023/03/26 09:25:48;;;;;;;;;;;7.00;99.90;;;;;;4951368;28;19957;-75
2023/03/26 09:28:26;;;;;;;;;;;7.00;99.90;;;;;;4959815;28;20028;-75
2023/03/26 09:30:59;;;;;;;;;;;7.00;99.90;;;;;;4958511;28;19926;-76
2023/03/26 09:33:54;;;;;;;;;;;7.00;99.90;;;;;;4960374;28;20787;-76
2023/03/26 09:36:29;;;;;;;;;;;7.00;99.90;;;;;;4961345;28;19930;-76
2023/03/26 09:39:01;;;;;;;;;;;7.00;99.90;;;;;;4962975;28;20464;-75
2023/03/26 09:41:41;;;;;;;;;;;7.00;99.90;;;;;;4967289;28;20417;-75
2023/03/26 09:44:28;;;;;;;;;;;7.00;99.90;;;;;;4970325;28;19934;-77
2023/03/26 09:47:07;;;;;;;;;;;7.00;99.90;;;;;;4977907;28;19930;-76
2023/03/26 09:49:44;;;;;;;;;;;7.00;99.90;;;;;;4966028;28;20024;-76
2023/03/26 09:52:26;;;;;;;;;;;7.00;99.90;;;;;;4961859;28;20392;-75
2023/03/26 09:54:59;;;;;;;;;;;7.10;99.90;;;;;;4956540;28;20480;-76
2023/03/26 09:57:36;;;;;;;;;;;7.00;99.90;;;;;;4964238;28;19944;-76
2023/03/26 10:00:09;;;;;;;;;;;7.00;99.90;;;;;;4963278;28;19961;-76
2023/03/26 10:02:53;;;;;;;;;;;7.00;99.90;;;;;;4964850;28;19981;-77
2023/03/26 10:05:25;;;;;;;;;;;7.10;99.90;;;;;;4960787;28;19927;-75
2023/03/26 10:08:05;;;;;;;;;;;7.10;99.90;;;;;;4969854;28;19934;-78
2023/03/26 10:10:37;;;;;;;;;;;7.20;99.90;;;;;;4953540;28;19966;-77
2023/03/26 10:13:08;;;;;;;;;;;7.20;99.90;;;;;;4959221;28;19926;-77
2023/03/26 10:15:40;;;;;;;;;;;7.20;99.90;;;;;;4955484;28;19934;-77
2023/03/26 10:18:16;;;;;;;;;;;7.30;99.90;;;;;;4962465;28;19934;-78
2023/03/26 10:20:51;;;;;;;;;;;7.30;99.90;;;;;;4975234;28;20098;-78
2023/03/26 10:23:27;;;;;;;;;;;7.40;99.90;;;;;;4958737;28;20044;-77
2023/03/26 10:25:58;;;;;;;;;;;7.40;99.90;;;;;;4957631;28;20021;-77
2023/03/26 10:28:46;;;;;;;;;;;7.50;99.90;;;;;;4960520;28;20316;-78
2023/03/26 10:31:26;;;;;;;;;;;7.60;99.90;;;;;;4962176;28;19934;-78
2023/03/26 10:34:00;;;;;;;;;;;7.70;99.90;;;;;;4958002;28;20353;-76
2023/03/26 10:36:30;;;;;;;;;;;7.70;99.90;;;;;;4963557;28;19976;-76
2023/03/26 10:39:09;;;;;;;;;;;7.80;99.90;;;;;;4972229;28;19935;-76
2023/03/26 10:41:39;;;;;;;;;;;8.00;99.90;;;;;;4958642;28;19934;-75
2023/03/26 10:44:24;;;;;;;;;;;8.10;99.90;;;;;;4965823;28;20009;-73
2023/03/26 10:47:01;;;;;;;;;;;8.10;99.90;;;;;;4962336;28;20660;-77
2023/03/26 10:49:42;;;;;;;;;;;8.30;99.90;;;;;;4965645;28;19932;-76
2023/03/26 10:52:09;;;;;;;;;;;8.40;99.90;;;;;;4958301;28;19930;-77
2023/03/26 10:54:41;;;;;;;;;;;8.50;99.90;;;;;;4967070;28;20350;-76
2023/03/26 10:57:12;;;;;;;;;;;8.60;99.90;;;;;;4966116;28;19931;-76
2023/03/26 10:59:40;;;;;;;;;;;8.60;99.90;;;;;;4961458;28;19930;-76
2023/03/26 11:02:20;;;;;;;;;;;8.60;99.90;;;;;;4968049;28;19926;-76
2023/03/26 11:04:49;;;;;;;;;;;8.70;99.90;;;;;;4963038;28;19926;-76
2023/03/26 11:07:20;;;;;;;;;;;8.70;99.90;;;;;;4957478;28;19926;-77
2023/03/26 11:09:50;;;;;;;;;;;8.70;99.90;;;;;;4962724;28;20384;-77
2023/03/26 11:12:19;;;;;;;;;;;8.60;99.90;;;;;;4961302;28;19926;-77
2023/03/26 11:14:53;;;;;;;;;;;8.60;99.90;;;;;;4960646;28;19927;-77
2023/03/26 11:17:27;;;;;;;;;;;8.50;99.90;;;;;;4962508;28;19926;-76
2023/03/26 11:19:59;;;;;;;;;;;8.40;99.90;;;;;;4959697;28;19962;-77
2023/03/26 11:22:34;;;;;;;;;;;8.30;99.90;;;;;;4959416;28;19976;-76
2023/03/26 11:25:16;;;;;;;;;;;8.20;99.90;;;;;;4962378;28;20447;-77
2023/03/26 11:27:50;;;;;;;;;;;8.20;99.90;;;;;;4957141;28;19934;-76
2023/03/26 11:30:22;;;;;;;;;;;8.10;99.90;;;;;;4957556;28;19993;-77
2023/03/26 11:32:51;;;;;;;;;;;8.10;99.90;;;;;;4958205;28;19930;-77
2023/03/26 11:35:20;;;;;;;;;;;8.10;99.90;;;;;;4959025;28;19985;-75
2023/03/26 11:37:50;;;;;;;;;;;8.00;99.90;;;;;;4960148;28;19961;-75
2023/03/26 11:40:22;;;;;;;;;;;8.00;99.90;;;;;;4960139;28;19984;-77
2023/03/26 11:42:51;;;;;;;;;;;8.00;99.90;;;;;;4961200;28;19965;-77
2023/03/26 11:45:18;;;;;;;;;;;8.00;99.90;;;;;;4963403;28;19926;-76
2023/03/26 11:47:48;;;;;;;;;;;8.00;99.90;;;;;;4959642;28;19997;-75
2023/03/26 11:50:16;;;;;;;;;;;8.00;99.90;;;;;;4964000;28;20452;-76
2023/03/26 11:52:45;;;;;;;;;;;8.00;99.90;;;;;;4964317;28;19934;-77
2023/03/26 11:55:12;;;;;;;;;;;8.00;99.90;;;;;;4961867;28;19930;-78
2023/03/26 11:57:41;;;;;;;;;;;8.00;99.90;;;;;;4960128;28;19961;-76
2023/03/26 12:00:15;;;;;;;;;;;8.00;99.90;;;;;;4964429;28;20331;-76
2023/03/26 12:02:42;;;;;;;;;;;8.00;99.90;;;;;;4961150;28;20021;-78
2023/03/26 12:05:19;;;;;;;;;;;8.00;99.90;;;;;;4963471;28;21584;-77
2023/03/26 12:07:47;;;;;;;;;;;8.00;99.90;;;;;;4962130;28;20004;-78
2023/03/26 12:10:21;;;;;;;;;;;8.00;99.90;;;;;;4957589;28;20020;-77
2023/03/26 12:12:48;;;;;;;;;;;8.00;99.90;;;;;;4961763;28;19930;-76
2023/03/26 12:15:17;;;;;;;;;;;8.00;99.90;;;;;;4954936;28;19933;-77
2023/03/26 12:17:45;;;;;;;;;;;8.00;99.90;;;;;;4956209;28;19930;-77
2023/03/26 12:20:39;;;;;;;;;;;7.90;99.90;;;;;;4967308;28;19930;-78
2023/03/26 12:23:30;;;;;;;;;;;7.90;99.90;;;;;;4936461;28;19941;-78
2023/03/26 12:26:04;;;;;;;;;;;7.90;99.90;;;;;;4961030;28;19930;-77
2023/03/26 12:28:32;;;;;;;;;;;7.90;99.90;;;;;;4953667;28;19933;-76
2023/03/26 12:31:01;;;;;;;;;;;7.90;99.90;;;;;;4951847;28;20512;-77
2023/03/26 12:33:29;;;;;;;;;;;7.90;99.90;;;;;;4956439;28;19930;-77
2023/03/26 12:35:59;;;;;;;;;;;7.90;99.90;;;;;;4955732;28;20009;-77
2023/03/26 12:38:33;;;;;;;;;;;7.90;99.90;;;;;;4963823;28;19926;-78
2023/03/26 12:41:04;;;;;;;;;;;7.90;99.90;;;;;;4957386;28;20472;-77
2023/03/26 12:43:35;;;;;;;;;;;7.90;99.90;;;;;;4964972;28;19930;-77
2023/03/26 12:46:02;;;;;;;;;;;7.90;99.90;;;;;;4959985;28;19969;-77
2023/03/26 12:48:29;;;;;;;;;;;8.00;99.90;;;;;;4943038;28;20038;-77
2023/03/26 12:51:01;;;;;;;;;;;8.00;99.90;;;;;;4963790;28;20020;-77
2023/03/26 12:53:36;;;;;;;;;;;8.10;99.90;;;;;;4973353;28;19934;-77
2023/03/26 12:56:09;;;;;;;;;;;8.20;99.90;;;;;;4967389;28;19973;-76
2023/03/26 12:58:54;;;;;;;;;;;8.20;99.90;;;;;;4969357;28;19934;-77
2023/03/26 13:01:26;;;;;;;;;;;8.20;99.90;;;;;;4955736;28;20005;-78
2023/03/26 13:04:07;;;;;;;;;;;8.30;99.90;;;;;;4960268;28;19934;-76
2023/03/26 13:06:37;;;;;;;;;;;8.30;99.90;;;;;;4952511;28;19941;-76
2023/03/26 13:09:18;;;;;;;;;;;8.40;99.90;;;;;;4958100;28;20020;-76
2023/03/26 13:11:52;;;;;;;;;;;8.40;99.90;;;;;;4959197;28;19947;-76
2023/03/26 13:14:32;;;;;;;;;;;8.50;99.90;;;;;;4954785;28;19934;-74
2023/03/26 13:17:00;;;;;;;;;;;8.50;99.90;;;;;;4959254;28;19926;-77
2023/03/26 13:19:30;;;;;;;;;;;8.60;99.90;;;;;;4961999;28;19926;-79
2023/03/26 13:22:04;;;;;;;;;;;8.60;99.90;;;;;;4952919;28;19984;-79
2023/03/26 13:24:38;;;;;;;;;;;8.70;99.90;;;;;;4958019;28;19926;-77
2023/03/26 13:27:10;;;;;;;;;;;8.60;99.90;;;;;;4954410;28;19930;-79
2023/03/26 13:29:40;;;;;;;;;;;8.60;99.90;;;;;;4969693;28;19930;-80
2023/03/26 13:32:13;;;;;;;;;;;8.60;99.90;;;;;;4968555;28;19933;-76
2023/03/26 13:34:45;;;;;;;;;;;8.60;99.90;;;;;;4947696;28;19930;-76
2023/03/26 13:37:14;;;;;;;;;;;8.60;99.90;;;;;;4953941;28;20020;-76
2023/03/26 13:39:49;;;;;;;;;;;8.70;99.90;;;;;;4963093;28;19933;-76
2023/03/26 13:42:27;;;;;;;;;;;8.70;99.90;;;;;;4955145;28;19930;-77
2023/03/26 13:45:00;;;;;;;;;;;8.80;99.90;;;;;;4959278;28;19933;-76
2023/03/26 13:47:28;;;;;;;;;;;8.80;99.90;;;;;;4967579;28;20361;-78
2023/03/26 13:49:59;;;;;;;;;;;8.80;99.90;;;;;;4957579;28;20481;-76
2023/03/26 13:52:28;;;;;;;;;;;8.80;99.90;;;;;;4964116;28;20009;-77
2023/03/26 13:55:00;;;;;;;;;;;8.80;99.90;;;;;;4967557;28;20305;-75
2023/03/26 13:57:30;;;;;;;;;;;8.80;99.90;;;;;;4963685;28;19930;-76
2023/03/26 14:00:00;;;;;;;;;;;8.80;99.90;;;;;;4959645;28;19930;-76
2023/03/26 14:02:30;;;;;;;;;;;8.90;99.90;;;;;;4967270;28;19926;-78
2023/03/26 14:05:00;;;;;;;;;;;8.90;99.90;;;;;;4965453;28;19963;-75
2023/03/26 14:07:31;;;;;;;;;;;8.90;99.90;;;;;;4976314;28;20550;-76
2023/03/26 14:10:01;;;;;;;;;;;9.00;99.90;;;;;;4963670;28;19926;-78
2023/03/26 14:12:43;;;;;;;;;;;9.00;99.90;;;;;;4968036;28;19952;-76
2023/03/26 14:15:13;;;;;;;;;;;9.00;99.90;;;;;;4962444;28;19926;-77
2023/03/26 14:17:45;;;;;;;;;;;9.00;99.90;;;;;;4968513;28;20305;-76
2023/03/26 14:20:26;;;;;;;;;;;9.00;99.90;;;;;;4961235;28;20066;-77
2023/03/26 14:23:01;;;;;;;;;;;9.00;99.90;;;;;;4964221;28;19933;-76
2023/03/26 14:25:37;;;;;;;;;;;9.00;99.90;;;;;;4962866;28;20709;-78
2023/03/26 14:28:12;;;;;;;;;;;9.00;99.90;;;;;;4964303;28;20546;-77
2023/03/26 14:31:06;;;;;;;;;;;9.10;99.90;;;;;;4966605;28;19930;-76
2023/03/26 14:33:51;;;;;;;;;;;9.10;99.90;;;;;;4938723;28;19973;-76
2023/03/26 14:36:23;;;;;;;;;;;9.20;99.90;;;;;;4960805;28;19926;-76
2023/03/26 14:39:00;;;;;;;;;;;9.30;99.90;;;;;;4968671;28;20031;-75
2023/03/26 14:41:29;;;;;;;;;;;9.30;99.90;;;;;;4958281;28;20025;-78
2023/03/26 14:44:08;;;;;;;;;;;9.40;99.90;;;;;;4963767;28;19934;-78
2023/03/26 14:46:40;;;;;;;;;;;9.50;99.90;;;;;;4961756;28;19980;-77
2023/03/26 14:49:16;;;;;;;;;;;9.50;99.90;;;;;;4965245;28;20049;-79
2023/03/26 14:51:52;;;;;;;;;;;9.60;99.90;;;;;;4960307;28;19933;-80
2023/03/26 14:54:22;;;;;;;;;;;9.60;99.90;;;;;;4962600;28;19953;-78
2023/03/26 14:56:53;;;;;;;;;;;9.70;99.90;;;;;;4977436;28;20029;-78
2023/03/26 14:59:37;;;;;;;;;;;9.70;99.90;;;;;;4955779;28;19973;-77
2023/03/26 15:02:23;;;;;;;;;;;9.70;99.90;;;;;;4959400;28;19930;-77
2023/03/26 15:05:09;;;;;;;;;;;9.80;99.90;;;;;;4966881;28;19934;-75
2023/03/26 15:07:54;;;;;;;;;;;9.90;99.90;;;;;;4958978;28;19966;-77
2023/03/26 15:10:48;;;;;;;;;;;9.90;99.90;;;;;;4953833;28;19926;-77
2023/03/26 15:13:36;;;;;;;;;;;10.00;99.90;;;;;;4962859;28;19981;-77
2023/03/26 15:16:12;;;;;;;;;;;10.00;99.90;;;;;;4967688;28;20024;-81
2023/03/26 15:18:54;;;;;;;;;;;10.10;99.90;;;;;;4963064;28;19932;-77